Airfield :
LOGIN :

Register | Disclaimer

   EN    FR    IT 

 










Legend :    VFR   Marginal VFR   IFR   Intensive IFR   Very Intensive IFR
Visi :
Ceiling :
>= 8 km
>= 3000ft
5 to 8 km
1000 to 3000 ft
1500m to 5 km
500 to 1000 ft
800 to 1500m
200 to 500 ft
< 800m
< 200 ft
Symbols :   Thunderstorms  Fog  Heavy snow  Heavy precipitations  Wind > 20 kt
SIGMETs :     Misc.  Thunderstorms  Icing  Turbulence  Mountain Waves  Volcanic Ashes






- Airport Elevation : 294 ft
- IATA code : NAP


LIRN - Naples Capodichino

CURRENT METAR :
  • 080850Z VRB01KT 9999 BKN035 14/11 Q1013 NOSIG

EXPIRED METARs :
  • 080820Z 10003KT 9999 SCT035 BKN055 12/10 Q1013 NOSIG
  • 080750Z VRB02KT 8000 FEW030 BKN050 11/11 Q1013 NOSIG
  • 080720Z VRB01KT 8000 FEW035 SCT065 10/09 Q1012 NOSIG
  • 080650Z 19003KT 140V200 8000 SCT060 11/11 Q1012 NOSIG
  • 080620Z VRB02KT 8000 SCT070 09/08 Q1012 NOSIG

TAF TAF LIRN
Valid from the 08 at 06:00 until the 09 at 06:00 UTC


080500Z 0806/0906 VRB05KT 7000 SCT040
TEMPO 0806/0808 4000 TSRA
TEMPO 0821/0902 4000 SHRA



MET'MAP, your aeronautical weather chart ! - Copyright ORBIFLY December 2007 - Disclaimer

ORBIFLY MET'MAP TEAM :

Programming & Development : Alexandra Zaïnal
Original concept : Baudouin d'Aumeries
Technical & hardware support : Manuel Goepfert
Assistance : Marc-Olivier Méhu




SOURCES & CREDITS :

   NOAA